createdAt,value
2017-12-12T00:01:59.296Z,78.30
2017-12-12T00:04:26.797Z,78.00
2017-12-12T00:06:54.240Z,78.00
2017-12-12T00:09:21.772Z,79.10
2017-12-12T00:11:49.552Z,78.40
2017-12-12T00:14:17.028Z,78.60
2017-12-12T00:16:44.877Z,78.50
2017-12-12T00:19:12.312Z,78.30
2017-12-12T00:21:39.764Z,77.80
2017-12-12T00:24:07.682Z,77.50
2017-12-12T00:26:35.137Z,77.50
2017-12-12T00:29:02.587Z,78.00
2017-12-12T00:31:30.036Z,78.40
2017-12-12T00:33:57.498Z,78.80
2017-12-12T00:36:24.940Z,79.10
2017-12-12T00:38:52.388Z,79.30
2017-12-12T00:41:19.904Z,79.10
2017-12-12T00:43:47.354Z,79.60
2017-12-12T00:46:16.058Z,79.40
2017-12-12T00:48:43.497Z,79.70
2017-12-12T00:51:11.385Z,79.70
2017-12-12T00:53:38.939Z,80.20
2017-12-12T00:56:06.373Z,80.80
2017-12-12T00:58:33.821Z,81.00
2017-12-12T01:01:01.257Z,80.20
2017-12-12T01:03:28.716Z,79.80
2017-12-12T01:05:56.158Z,80.10
2017-12-12T01:08:23.629Z,80.20
2017-12-12T01:10:51.073Z,80.70
2017-12-12T01:13:18.509Z,75.50
2017-12-12T01:15:45.969Z,74.90
2017-12-12T01:18:13.405Z,74.50
2017-12-12T01:20:40.844Z,75.30
2017-12-12T01:23:08.295Z,76.00
2017-12-12T01:25:36.261Z,77.20
2017-12-12T01:28:03.728Z,77.60
2017-12-12T01:30:31.169Z,77.30
2017-12-12T01:32:58.605Z,76.90
2017-12-12T01:35:26.504Z,77.40
2017-12-12T01:37:54.377Z,78.00
2017-12-12T01:40:21.815Z,76.00
2017-12-12T01:42:49.258Z,74.50
2017-12-12T01:45:16.689Z,73.40
2017-12-12T01:47:44.144Z,73.40
2017-12-12T01:50:11.692Z,73.50
2017-12-12T01:52:39.158Z,74.40
2017-12-12T01:55:06.602Z,74.60
2017-12-12T01:57:34.036Z,75.10
2017-12-12T02:00:01.472Z,75.40
2017-12-12T02:02:28.990Z,76.00
2017-12-12T02:04:56.439Z,76.80
2017-12-12T02:07:23.870Z,77.20
2017-12-12T02:09:51.373Z,77.80
2017-12-12T02:12:18.834Z,78.50
2017-12-12T02:14:46.286Z,78.80
2017-12-12T02:17:13.729Z,79.40
2017-12-12T02:19:41.177Z,80.00
2017-12-12T02:22:08.679Z,80.30
2017-12-12T02:24:36.127Z,80.50
2017-12-12T02:27:03.621Z,80.50
2017-12-12T02:29:31.060Z,81.00
2017-12-12T02:31:58.488Z,81.10
2017-12-12T02:34:25.985Z,81.00
2017-12-12T02:36:53.441Z,81.70
2017-12-12T02:39:20.873Z,82.10
2017-12-12T02:41:48.785Z,81.60
2017-12-12T02:44:16.223Z,82.00
2017-12-12T02:46:43.663Z,82.60
2017-12-12T02:49:11.472Z,82.90
2017-12-12T02:51:38.916Z,84.00
2017-12-12T02:54:06.373Z,85.90
2017-12-12T02:56:33.968Z,86.70
2017-12-12T02:59:01.397Z,87.80
2017-12-12T03:01:28.878Z,89.20
2017-12-12T03:03:56.325Z,89.40
2017-12-12T03:06:23.789Z,89.90
2017-12-12T03:08:51.217Z,88.70
2017-12-12T03:11:18.657Z,89.20
2017-12-12T03:13:46.205Z,88.90
2017-12-12T03:16:13.642Z,88.70
2017-12-12T03:18:41.090Z,89.20
2017-12-12T03:21:08.569Z,89.70
2017-12-12T03:23:36.029Z,90.00
2017-12-12T03:26:03.488Z,90.20
2017-12-12T03:28:30.932Z,89.70
2017-12-12T03:30:58.387Z,88.70
2017-12-12T03:33:25.879Z,88.40
2017-12-12T03:35:53.299Z,88.60
2017-12-12T03:38:20.749Z,89.00
2017-12-12T03:40:48.260Z,89.00
2017-12-12T03:43:15.709Z,89.00
2017-12-12T03:45:43.476Z,88.60
2017-12-12T03:48:10.909Z,88.90
2017-12-12T03:50:38.509Z,88.10
2017-12-12T03:53:05.950Z,88.30
2017-12-12T03:55:33.427Z,87.60
2017-12-12T03:58:00.841Z,87.30
2017-12-12T04:00:28.358Z,86.20
2017-12-12T04:02:55.913Z,86.20
2017-12-12T04:05:23.365Z,86.50
2017-12-12T04:07:50.808Z,86.50
2017-12-12T04:10:18.313Z,85.70
2017-12-12T04:12:45.748Z,84.90
2017-12-12T04:15:13.207Z,84.60
2017-12-12T04:17:40.753Z,84.10
2017-12-12T04:20:08.452Z,84.10
2017-12-12T04:22:35.901Z,84.30
2017-12-12T04:25:03.373Z,83.50
2017-12-12T04:27:30.825Z,83.20
2017-12-12T04:29:58.261Z,83.60
2017-12-12T04:32:25.711Z,83.40
2017-12-12T04:34:53.145Z,82.40
2017-12-12T04:37:20.681Z,83.20
2017-12-12T04:39:48.125Z,82.40
2017-12-12T04:42:15.552Z,82.20
2017-12-12T04:44:43.060Z,82.30
2017-12-12T04:47:10.492Z,82.00
2017-12-12T04:49:37.923Z,81.70
2017-12-12T04:52:05.445Z,81.20
2017-12-12T04:54:32.873Z,81.60
2017-12-12T04:57:00.329Z,81.60
2017-12-12T04:59:27.756Z,81.80
2017-12-12T05:01:55.184Z,82.10
2017-12-12T05:04:22.643Z,82.00
2017-12-12T05:06:50.207Z,81.80
2017-12-12T05:09:17.714Z,81.30
2017-12-12T05:11:45.149Z,81.90
2017-12-12T05:14:12.581Z,81.20
2017-12-12T05:16:40.060Z,81.20
2017-12-12T05:19:07.507Z,81.30
2017-12-12T05:21:34.964Z,80.70
2017-12-12T05:24:02.444Z,81.00
2017-12-12T05:26:29.999Z,81.00
2017-12-12T05:28:57.420Z,80.60
2017-12-12T05:31:24.868Z,80.60
2017-12-12T05:33:52.802Z,80.40
2017-12-12T05:36:20.224Z,80.20
2017-12-12T05:38:47.658Z,80.40
2017-12-12T05:41:15.201Z,80.90
2017-12-12T05:43:42.633Z,80.60
2017-12-12T05:46:10.404Z,80.30
2017-12-12T05:48:37.838Z,80.60
2017-12-12T05:51:05.331Z,79.70
2017-12-12T05:53:32.775Z,80.00
2017-12-12T05:56:00.208Z,80.40
2017-12-12T05:58:27.664Z,80.00
2017-12-12T06:00:55.192Z,80.20
2017-12-12T06:03:22.624Z,80.60
2017-12-12T06:05:50.065Z,80.10
2017-12-12T06:08:17.510Z,80.00
2017-12-12T06:10:45.042Z,80.20
2017-12-12T06:13:12.486Z,79.90
2017-12-12T06:15:39.919Z,78.70
2017-12-12T06:18:07.383Z,78.50
2017-12-12T06:20:34.808Z,79.00
2017-12-12T06:23:02.262Z,78.70
2017-12-12T06:25:29.796Z,78.70
2017-12-12T06:27:57.234Z,78.90
2017-12-12T06:30:24.712Z,78.50
2017-12-12T06:32:52.181Z,78.30
2017-12-12T06:35:19.618Z,78.70
2017-12-12T06:37:47.061Z,78.80
2017-12-12T06:40:14.560Z,78.60
2017-12-12T06:42:42.006Z,78.50
2017-12-12T06:45:09.436Z,78.60
2017-12-12T06:47:36.952Z,78.10
2017-12-12T06:50:04.410Z,78.50
2017-12-12T06:52:31.866Z,79.00
2017-12-12T06:54:59.316Z,78.50
2017-12-12T06:57:26.753Z,78.50
2017-12-12T06:59:54.252Z,77.70
2017-12-12T07:02:21.708Z,78.10
2017-12-12T07:04:49.149Z,78.10
2017-12-12T07:07:16.617Z,78.30
2017-12-12T07:09:44.052Z,78.00
2017-12-12T07:12:11.493Z,77.80
2017-12-12T07:14:38.938Z,78.20
2017-12-12T07:17:06.476Z,78.40
2017-12-12T07:19:33.943Z,78.60
2017-12-12T07:22:01.374Z,78.60
2017-12-12T07:24:28.805Z,78.80
2017-12-12T07:26:56.254Z,78.80
2017-12-12T07:29:23.695Z,78.60
2017-12-12T07:31:51.323Z,78.80
2017-12-12T07:34:18.742Z,78.80
2017-12-12T07:36:46.169Z,78.90
2017-12-12T07:39:13.651Z,78.60
2017-12-12T07:41:41.089Z,78.80
2017-12-12T07:44:08.563Z,79.00
2017-12-12T07:46:36.425Z,78.90
2017-12-12T07:49:03.865Z,78.80
2017-12-12T07:51:31.317Z,78.90
2017-12-12T07:53:58.905Z,79.10
2017-12-12T07:56:26.646Z,79.10
2017-12-12T07:58:54.093Z,79.40
2017-12-12T08:01:21.534Z,79.50
2017-12-12T08:03:48.979Z,79.50
2017-12-12T08:06:16.525Z,79.70
2017-12-12T08:08:43.990Z,80.00
2017-12-12T08:11:11.453Z,80.50
2017-12-12T08:13:38.895Z,80.60
2017-12-12T08:16:06.340Z,80.60
2017-12-12T08:18:33.768Z,80.80
2017-12-12T08:21:01.333Z,80.70
2017-12-12T08:23:29.020Z,81.20
2017-12-12T08:25:56.457Z,80.00
2017-12-12T08:28:24.928Z,79.30
2017-12-12T08:30:52.786Z,79.10
2017-12-12T08:33:20.248Z,79.50
2017-12-12T08:35:47.712Z,79.00
2017-12-12T08:38:15.156Z,79.20
2017-12-12T08:40:42.596Z,79.80
2017-12-12T08:43:10.041Z,80.50
2017-12-12T08:45:37.524Z,80.70
2017-12-12T08:48:04.964Z,80.50
2017-12-12T08:50:32.399Z,80.80
2017-12-12T08:52:59.845Z,81.00
2017-12-12T08:55:27.384Z,81.00
2017-12-12T08:57:54.957Z,81.30
2017-12-12T09:00:22.733Z,81.70
2017-12-12T09:02:50.200Z,81.70
2017-12-12T09:05:17.665Z,81.80
2017-12-12T09:07:45.101Z,82.70
2017-12-12T09:10:12.581Z,81.80
2017-12-12T09:12:40.036Z,81.50
2017-12-12T09:15:07.477Z,80.80
2017-12-12T09:17:35.360Z,80.00
2017-12-12T09:20:02.793Z,78.50
2017-12-12T09:22:30.281Z,77.10
2017-12-12T09:24:57.711Z,72.20
2017-12-12T09:27:25.229Z,68.90
2017-12-12T09:29:52.693Z,65.50
2017-12-12T09:32:20.132Z,64.00
2017-12-12T09:34:47.632Z,61.30
2017-12-12T09:37:15.065Z,60.20
2017-12-12T09:39:42.500Z,61.40
2017-12-12T09:42:09.941Z,60.40
2017-12-12T09:44:37.376Z,58.90
2017-12-12T09:47:04.894Z,58.60
2017-12-12T09:49:32.317Z,56.70
2017-12-12T09:51:59.838Z,56.70
2017-12-12T09:54:27.289Z,55.70
2017-12-12T09:56:54.744Z,57.10
2017-12-12T09:59:22.208Z,57.90
2017-12-12T10:01:49.668Z,59.30
2017-12-12T10:04:17.110Z,60.30
2017-12-12T10:06:44.595Z,61.70
2017-12-12T10:09:12.036Z,61.90
2017-12-12T10:11:39.507Z,62.50
2017-12-12T10:14:06.998Z,62.90
2017-12-12T10:16:34.437Z,64.40
2017-12-12T10:19:02.089Z,65.60
2017-12-12T10:21:29.689Z,66.20
2017-12-12T10:23:57.183Z,65.90
2017-12-12T10:26:24.636Z,62.90
2017-12-12T10:28:52.159Z,62.20
2017-12-12T10:31:19.600Z,61.70
2017-12-12T10:33:47.093Z,60.40
2017-12-12T10:36:14.553Z,59.80
2017-12-12T10:38:41.988Z,58.50
2017-12-12T10:41:09.441Z,57.20
2017-12-12T10:43:36.881Z,56.20
2017-12-12T10:46:04.320Z,56.60
2017-12-12T10:48:32.545Z,58.80
2017-12-12T10:51:00.091Z,58.70
2017-12-12T10:53:27.516Z,60.80
2017-12-12T10:55:54.956Z,61.60
2017-12-12T10:58:22.508Z,63.40
2017-12-12T11:00:49.973Z,64.40
2017-12-12T11:03:17.404Z,64.70
2017-12-12T11:05:44.912Z,65.90
2017-12-12T11:08:12.380Z,66.00
2017-12-12T11:10:39.822Z,65.70
2017-12-12T11:13:07.352Z,66.50
2017-12-12T11:15:34.792Z,66.60
2017-12-12T11:18:02.618Z,67.60
2017-12-12T11:20:30.096Z,68.10
2017-12-12T11:22:57.533Z,68.80
2017-12-12T11:25:24.996Z,69.10
2017-12-12T11:27:52.665Z,69.70
2017-12-12T11:30:20.353Z,70.20
2017-12-12T11:32:47.815Z,70.40
2017-12-12T11:35:15.253Z,71.00
2017-12-12T11:37:43.138Z,70.90
2017-12-12T11:40:10.671Z,71.20
2017-12-12T11:42:38.116Z,70.60
2017-12-12T11:45:05.552Z,71.00
2017-12-12T11:47:32.989Z,72.00
2017-12-12T11:50:00.460Z,71.90
2017-12-12T11:52:27.913Z,71.50
2017-12-12T11:54:55.351Z,70.30
2017-12-12T11:57:22.830Z,70.80
2017-12-12T11:59:50.272Z,70.30
2017-12-12T12:02:17.752Z,71.20
2017-12-12T12:04:45.207Z,71.80
2017-12-12T12:07:12.665Z,73.50
2017-12-12T12:09:40.105Z,71.80
2017-12-12T12:12:07.709Z,67.30
2017-12-12T12:14:35.156Z,64.00
2017-12-12T12:17:02.930Z,59.60
2017-12-12T12:19:30.398Z,58.00
2017-12-12T12:21:57.868Z,56.70
2017-12-12T12:24:25.751Z,55.70
2017-12-12T12:26:53.580Z,56.20
2017-12-12T12:29:21.022Z,55.10
2017-12-12T12:31:48.460Z,54.50
2017-12-12T12:34:15.998Z,53.90
2017-12-12T12:36:43.437Z,53.10
2017-12-12T12:39:10.922Z,54.50
2017-12-12T12:41:38.349Z,57.20
2017-12-12T12:44:05.782Z,59.00
2017-12-12T12:46:33.317Z,61.00
2017-12-12T12:49:00.757Z,63.10
2017-12-12T12:51:28.244Z,63.60
2017-12-12T12:53:56.108Z,64.40
2017-12-12T12:56:23.825Z,66.70
2017-12-12T12:58:51.405Z,66.70
2017-12-12T13:01:18.872Z,66.70
2017-12-12T13:03:46.383Z,67.80
2017-12-12T13:06:14.212Z,67.10
2017-12-12T13:08:41.664Z,68.00
2017-12-12T13:11:09.144Z,68.20
2017-12-12T13:13:36.993Z,67.70
2017-12-12T13:16:04.488Z,68.30
2017-12-12T13:18:32.252Z,68.40
2017-12-12T13:21:00.483Z,62.60
2017-12-12T13:23:28.078Z,62.60
2017-12-12T13:25:55.516Z,63.70
2017-12-12T13:28:23.020Z,63.70
2017-12-12T13:30:50.465Z,64.60
2017-12-12T13:33:17.919Z,65.90
2017-12-12T13:35:45.372Z,65.70
2017-12-12T13:38:13.686Z,66.50
2017-12-12T13:40:41.155Z,67.50
2017-12-12T13:43:08.585Z,68.20
2017-12-12T13:45:36.030Z,69.10
2017-12-12T13:48:03.480Z,70.00
2017-12-12T13:50:30.961Z,70.30
2017-12-12T13:52:58.447Z,69.60
2017-12-12T13:55:25.895Z,69.10
2017-12-12T13:57:53.322Z,68.10
2017-12-12T14:00:20.772Z,67.80
2017-12-12T14:02:48.210Z,67.50
2017-12-12T14:05:15.668Z,68.10
2017-12-12T14:07:43.186Z,68.20
2017-12-12T14:10:10.645Z,68.30
2017-12-12T14:12:38.100Z,68.50
2017-12-12T14:15:05.617Z,69.10
2017-12-12T14:17:33.052Z,69.60
2017-12-12T14:20:00.899Z,69.80
2017-12-12T14:22:28.374Z,70.30
2017-12-12T14:24:56.233Z,70.20
2017-12-12T14:27:23.726Z,69.50
2017-12-12T14:29:51.582Z,69.10
2017-12-12T14:32:19.032Z,68.10
2017-12-12T14:34:46.460Z,67.30
2017-12-12T14:37:14.360Z,66.90
2017-12-12T14:39:41.841Z,66.80
2017-12-12T14:42:09.395Z,67.20
2017-12-12T14:44:36.833Z,67.90
2017-12-12T14:47:04.277Z,68.10
2017-12-12T14:49:31.712Z,69.50
2017-12-12T14:51:59.541Z,70.60
2017-12-12T14:54:27.037Z,70.90
2017-12-12T14:56:54.787Z,70.40
2017-12-12T14:59:22.216Z,71.00
2017-12-12T15:01:49.792Z,71.50
2017-12-12T15:04:17.256Z,72.10
2017-12-12T15:06:44.732Z,72.70
2017-12-12T15:09:12.189Z,73.40
2017-12-12T15:11:40.048Z,74.00
2017-12-12T15:14:07.508Z,74.50
2017-12-12T15:16:34.973Z,75.20
2017-12-12T15:19:02.449Z,75.70
2017-12-12T15:21:29.998Z,76.20
2017-12-12T15:23:57.454Z,76.70
2017-12-12T15:26:25.230Z,77.20
2017-12-12T15:28:52.664Z,77.80
2017-12-12T15:31:20.094Z,78.20
2017-12-12T15:33:47.565Z,78.60
2017-12-12T15:36:15.085Z,78.90
2017-12-12T15:38:42.632Z,79.00
2017-12-12T15:41:10.269Z,79.10
2017-12-12T15:43:37.705Z,79.00
2017-12-12T15:46:05.204Z,79.00
2017-12-12T15:48:32.787Z,78.80
2017-12-12T15:51:00.264Z,78.30
2017-12-12T15:53:27.694Z,77.90
2017-12-12T15:55:55.129Z,77.20
2017-12-12T15:58:23.057Z,77.00
2017-12-12T16:00:50.500Z,76.60
2017-12-12T16:03:17.977Z,76.50
2017-12-12T16:05:45.511Z,76.30
2017-12-12T16:08:12.956Z,76.30
2017-12-12T16:10:40.448Z,76.40
2017-12-12T16:13:08.084Z,76.20
2017-12-12T16:15:35.580Z,76.00
2017-12-12T16:18:03.150Z,75.70
2017-12-12T16:20:31.016Z,75.40
2017-12-12T16:22:58.508Z,75.10
2017-12-12T16:25:25.941Z,74.80
2017-12-12T16:27:53.420Z,74.80
2017-12-12T16:30:20.856Z,74.40
2017-12-12T16:32:48.333Z,74.30
2017-12-12T16:35:15.784Z,74.10
2017-12-12T16:37:43.260Z,74.00
2017-12-12T16:40:10.728Z,73.80
2017-12-12T16:42:38.175Z,73.50
2017-12-12T16:45:05.593Z,73.40
2017-12-12T16:47:33.089Z,73.30
2017-12-12T16:50:00.536Z,73.20
2017-12-12T16:52:28.155Z,73.10
2017-12-12T16:54:55.610Z,73.10
2017-12-12T16:57:23.040Z,73.10
2017-12-12T16:59:50.499Z,73.40
2017-12-12T17:02:17.947Z,73.60
2017-12-12T17:04:45.413Z,73.80
2017-12-12T17:07:12.884Z,73.80
2017-12-12T17:09:40.336Z,73.90
2017-12-12T17:12:07.773Z,74.20
2017-12-12T17:14:35.217Z,74.30
2017-12-12T17:17:02.742Z,74.60
2017-12-12T17:19:30.185Z,74.80
2017-12-12T17:21:57.636Z,75.30
2017-12-12T17:24:25.436Z,75.30
2017-12-12T17:26:52.869Z,75.60
2017-12-12T17:29:20.412Z,76.10
2017-12-12T17:31:47.880Z,76.70
2017-12-12T17:34:15.329Z,77.40
2017-12-12T17:36:42.785Z,78.30
2017-12-12T17:39:10.230Z,77.60
2017-12-12T17:41:37.700Z,77.80
2017-12-12T17:44:05.533Z,77.60
2017-12-12T17:46:33.018Z,77.50
2017-12-12T17:49:00.465Z,77.50
2017-12-12T17:51:27.926Z,77.50
2017-12-12T17:53:55.420Z,77.50
2017-12-12T17:56:22.848Z,77.50
2017-12-12T17:58:50.281Z,77.60
2017-12-12T18:01:17.740Z,77.90
2017-12-12T18:03:45.726Z,78.10
2017-12-12T18:06:13.196Z,78.10
2017-12-12T18:08:40.636Z,78.40
2017-12-12T18:11:08.388Z,78.30
2017-12-12T18:13:36.169Z,78.30
2017-12-12T18:16:03.794Z,78.30
2017-12-12T18:18:31.265Z,77.80
2017-12-12T18:20:58.698Z,77.70
2017-12-12T18:23:26.952Z,77.50
2017-12-12T18:25:55.414Z,77.30
2017-12-12T18:28:24.366Z,77.00
2017-12-12T18:30:52.212Z,77.00
2017-12-12T18:33:19.659Z,76.70
2017-12-12T18:35:47.156Z,76.60
2017-12-12T18:38:14.615Z,76.40
2017-12-12T18:40:42.316Z,76.20
2017-12-12T18:43:10.544Z,76.10
2017-12-12T18:45:38.648Z,76.00
2017-12-12T18:48:06.088Z,75.90
2017-12-12T18:50:33.575Z,75.70
2017-12-12T18:53:01.010Z,75.80
2017-12-12T18:55:28.479Z,75.60
2017-12-12T18:57:55.913Z,75.50
2017-12-12T19:00:23.357Z,75.60
2017-12-12T19:02:51.262Z,75.10
2017-12-12T19:05:18.714Z,75.10
2017-12-12T19:07:46.177Z,75.10
2017-12-12T19:10:13.687Z,75.20
2017-12-12T19:12:41.120Z,75.30
2017-12-12T19:15:08.574Z,75.60
2017-12-12T19:17:36.030Z,75.90
2017-12-12T19:20:03.502Z,76.30
2017-12-12T19:22:30.936Z,76.50
2017-12-12T19:24:58.376Z,76.80
2017-12-12T19:27:25.817Z,76.80
2017-12-12T19:29:53.245Z,77.00
2017-12-12T19:32:20.792Z,77.00
2017-12-12T19:34:48.240Z,77.00
2017-12-12T19:37:15.743Z,77.00
2017-12-12T19:39:43.184Z,77.20
2017-12-12T19:42:10.650Z,77.40
2017-12-12T19:44:38.116Z,77.80
2017-12-12T19:47:05.574Z,78.10
2017-12-12T19:49:33.128Z,78.50
2017-12-12T19:52:00.890Z,79.00
2017-12-12T19:54:28.356Z,79.30
2017-12-12T19:56:55.830Z,79.40
2017-12-12T19:59:23.291Z,79.60
2017-12-12T20:01:50.763Z,79.90
2017-12-12T20:04:18.210Z,80.10
2017-12-12T20:06:45.664Z,80.10
2017-12-12T20:09:13.144Z,80.30
2017-12-12T20:11:40.583Z,80.70
2017-12-12T20:14:08.009Z,81.10
2017-12-12T20:16:35.699Z,81.60
2017-12-12T20:19:03.378Z,81.90
2017-12-12T20:21:30.893Z,82.50
2017-12-12T20:23:58.767Z,82.90
2017-12-12T20:26:26.259Z,83.30
2017-12-12T20:28:54.865Z,83.60
2017-12-12T20:31:22.304Z,84.00
2017-12-12T20:33:49.775Z,84.40
2017-12-12T20:36:17.228Z,84.40
2017-12-12T20:38:45.119Z,84.90
2017-12-12T20:41:12.997Z,85.00
2017-12-12T20:43:40.856Z,85.10
2017-12-12T20:46:08.365Z,85.70
2017-12-12T20:48:35.791Z,85.90
2017-12-12T20:51:03.242Z,86.00
2017-12-12T20:53:30.693Z,86.20
2017-12-12T20:55:58.127Z,86.50
2017-12-12T20:58:25.665Z,87.00
2017-12-12T21:00:53.312Z,87.50
2017-12-12T21:03:22.264Z,88.00
2017-12-12T21:05:49.720Z,87.90
2017-12-12T21:08:17.456Z,88.10
2017-12-12T21:10:44.999Z,88.40
2017-12-12T21:13:12.467Z,88.50
2017-12-12T21:15:39.941Z,88.60
2017-12-12T21:18:07.397Z,88.50
2017-12-12T21:20:34.834Z,88.40
2017-12-12T21:23:02.292Z,88.40
2017-12-12T21:25:30.125Z,88.50
2017-12-12T21:27:57.581Z,88.70
2017-12-12T21:30:25.465Z,88.60
2017-12-12T21:32:53.043Z,88.60
2017-12-12T21:35:20.828Z,88.80
2017-12-12T21:37:48.311Z,88.60
2017-12-12T21:40:15.748Z,88.50
2017-12-12T21:42:43.269Z,88.40
2017-12-12T21:45:10.701Z,88.30
2017-12-12T21:47:38.596Z,88.10
2017-12-12T21:50:05.998Z,88.00
2017-12-12T21:52:33.469Z,88.90
2017-12-12T21:55:00.929Z,88.00
2017-12-12T21:57:28.371Z,87.90
2017-12-12T21:59:55.916Z,87.80
2017-12-12T22:02:23.554Z,87.80
2017-12-12T22:04:51.182Z,87.90
2017-12-12T22:07:18.665Z,88.10
2017-12-12T22:09:46.134Z,88.30
2017-12-12T22:12:13.622Z,88.60
2017-12-12T22:14:41.163Z,88.90
2017-12-12T22:17:08.605Z,88.90
2017-12-12T22:19:36.061Z,88.60
2017-12-12T22:22:03.492Z,88.70
2017-12-12T22:24:30.978Z,88.90
2017-12-12T22:26:58.405Z,88.80
2017-12-12T22:29:25.845Z,88.80
2017-12-12T22:31:53.299Z,88.60
2017-12-12T22:34:20.757Z,88.70
2017-12-12T22:36:48.602Z,88.60
2017-12-12T22:39:16.056Z,89.00
2017-12-12T22:41:43.598Z,89.30
2017-12-12T22:44:11.055Z,89.60
2017-12-12T22:46:38.931Z,90.00
2017-12-12T22:49:06.367Z,90.20
2017-12-12T22:51:34.190Z,90.30
2017-12-12T22:54:01.631Z,90.20
2017-12-12T22:56:29.068Z,90.20
2017-12-12T22:58:56.512Z,90.30
2017-12-12T23:01:24.072Z,90.40
2017-12-12T23:03:51.519Z,90.60
2017-12-12T23:06:18.957Z,90.80
2017-12-12T23:08:46.433Z,90.90
2017-12-12T23:11:13.877Z,90.90
2017-12-12T23:13:41.739Z,91.10
2017-12-12T23:16:09.194Z,91.20
2017-12-12T23:18:36.741Z,91.30
2017-12-12T23:21:04.194Z,91.30
2017-12-12T23:23:31.621Z,91.30
2017-12-12T23:25:59.083Z,91.50
2017-12-12T23:28:26.605Z,91.70
2017-12-12T23:30:54.384Z,91.90
2017-12-12T23:33:21.837Z,92.00
2017-12-12T23:35:49.359Z,91.90
2017-12-12T23:38:16.780Z,91.80
2017-12-12T23:40:44.241Z,91.50
2017-12-12T23:43:12.092Z,91.40
2017-12-12T23:45:39.544Z,91.30
2017-12-12T23:48:07.026Z,91.30
2017-12-12T23:50:34.562Z,91.20
2017-12-12T23:53:02.337Z,91.20
2017-12-12T23:55:29.776Z,91.10
2017-12-12T23:57:57.298Z,91.00
